Time;durP1;ratioP1;P1;durP2;ratioP2;P2;SDS_P1;SDS_P2;PMS_P1;PMS_P2;Temp;Humidity;BMP_temperature;BMP_pressure;BME280_temperature;BME280_humidity;BME280_pressure;Samples;Min_cycle;Max_cycle;Signal;HPM_P1;HPM_P2
2023/08/26 00:00:36;;;;;;;10.30;4.85;;;;;;;-145.69;nan;51721.59;5135966;27;20661;-84
2023/08/26 00:03:03;;;;;;;11.02;5.05;;;;;;;-145.69;nan;51699.81;5136004;27;20224;-85
2023/08/26 00:05:29;;;;;;;11.98;4.45;;;;;;;-145.69;nan;51695.88;5116615;27;20202;-86
2023/08/26 00:07:56;;;;;;;11.68;4.65;;;;;;;-145.69;nan;51695.88;5115525;28;20204;-85
2023/08/26 00:10:22;;;;;;;7.68;5.20;;;;;;;-145.69;nan;51689.94;5115171;28;20203;-83
2023/08/26 00:12:49;;;;;;;9.65;4.60;;;;;;;-145.69;nan;51711.72;5115489;28;20236;-84
2023/08/26 00:15:17;;;;;;;9.52;4.47;;;;;;;-145.69;nan;51707.75;5115071;28;20323;-85
2023/08/26 00:17:44;;;;;;;9.80;4.97;;;;;;;-145.69;nan;51680.03;5115297;28;20211;-84
2023/08/26 00:20:11;;;;;;;12.02;4.65;;;;;;;-145.69;nan;51715.66;5115100;28;20201;-84
2023/08/26 00:22:38;;;;;;;12.23;5.20;;;;;;;-145.69;nan;51666.16;5115106;28;20231;-84
2023/08/26 00:25:06;;;;;;;9.10;4.60;;;;;;;-145.69;nan;51680.03;5115294;28;20292;-85
2023/08/26 00:27:32;;;;;;;10.98;4.70;;;;;;;-145.69;nan;51668.16;5115069;28;20266;-84
2023/08/26 00:29:58;;;;;;;9.55;5.22;;;;;;;-145.69;nan;51711.72;5114077;28;20433;-84
2023/08/26 00:32:27;;;;;;;14.02;5.60;;;;;;;-145.69;nan;51701.81;5115080;28;20213;-85
2023/08/26 00:34:53;;;;;;;8.13;5.35;;;;;;;-145.69;nan;51672.09;5112731;28;20202;-84
2023/08/26 00:37:20;;;;;;;8.93;5.22;;;;;;;-145.69;nan;51691.91;5114695;28;20204;-84
2023/08/26 00:39:46;;;;;;;8.85;4.88;;;;;;;-145.69;nan;51689.94;5114007;28;20201;-84
2023/08/26 00:42:13;;;;;;;11.98;5.00;;;;;;;-145.69;nan;51695.88;5114582;28;20232;-84
2023/08/26 00:44:39;;;;;;;6.63;4.40;;;;;;;-145.69;nan;51709.72;5114615;28;20204;-84
2023/08/26 00:47:06;;;;;;;5.85;4.32;;;;;;;-145.69;nan;51687.94;5114585;28;20209;-84
2023/08/26 00:49:35;;;;;;;9.70;4.90;;;;;;;-145.69;nan;51676.06;5113827;28;20202;-84
2023/08/26 00:52:02;;;;;;;10.30;5.18;;;;;;;-145.69;nan;51703.78;5114229;28;20205;-85
2023/08/26 00:54:32;;;;;;;10.23;5.18;;;;;;;-145.69;nan;51707.75;5114917;28;20232;-83
2023/08/26 00:56:58;;;;;;;7.28;4.45;;;;;;;-145.69;nan;51680.03;5114745;28;20247;-85
2023/08/26 00:59:25;;;;;;;10.20;5.00;;;;;;;-145.69;nan;51687.94;5114322;28;20224;-84
2023/08/26 01:01:52;;;;;;;10.75;5.00;;;;;;;-145.69;nan;51658.25;5114009;28;20221;-83
2023/08/26 01:04:19;;;;;;;11.93;5.22;;;;;;;-145.69;nan;51695.88;5114065;28;20205;-84
2023/08/26 01:06:47;;;;;;;10.90;5.13;;;;;;;-145.69;nan;51695.88;5114249;28;20201;-82
2023/08/26 01:09:13;;;;;;;10.85;4.68;;;;;;;-145.69;nan;51678.03;5114107;28;20201;-83
2023/08/26 01:11:45;;;;;;;7.63;4.82;;;;;;;-145.69;nan;51680.03;5113908;28;20193;-82
2023/08/26 01:14:20;;;;;;;8.85;5.32;;;;;;;-145.69;nan;51660.22;5113801;28;20240;-83
2023/08/26 01:16:47;;;;;;;9.57;4.80;;;;;;;-145.69;nan;51691.91;5113919;28;20659;-83
2023/08/26 01:19:22;;;;;;;11.82;5.50;;;;;;;-145.69;nan;51699.81;5114159;28;20209;-83
2023/08/26 01:21:53;;;;;;;8.27;5.00;;;;;;;-145.69;nan;51705.75;5113619;28;20225;-83
2023/08/26 01:24:21;;;;;;;9.32;4.80;;;;;;;-145.69;nan;51687.94;5113422;28;20210;-83
2023/08/26 01:26:48;;;;;;;10.00;5.10;;;;;;;-145.69;nan;51672.09;5113705;28;20194;-83
2023/08/26 01:29:14;;;;;;;10.95;5.20;;;;;;;-145.69;nan;51664.19;5113034;28;20224;-81
2023/08/26 01:31:45;;;;;;;8.10;4.82;;;;;;;-145.69;nan;51648.34;5095447;28;20602;-83
2023/08/26 01:34:17;;;;;;;9.23;5.03;;;;;;;-145.69;nan;51670.13;5113452;28;20198;-83
2023/08/26 01:36:45;;;;;;;8.90;5.30;;;;;;;-145.69;nan;51685.97;5113782;28;20207;-83
2023/08/26 01:39:14;;;;;;;10.18;5.15;;;;;;;-145.69;nan;51687.94;5113952;28;20200;-84
2023/08/26 01:41:46;;;;;;;9.15;4.65;;;;;;;-145.69;nan;51664.19;5114561;28;20205;-83
2023/08/26 01:44:13;;;;;;;13.05;5.88;;;;;;;-145.69;nan;51725.56;5115231;28;20202;-83
2023/08/26 01:46:40;;;;;;;10.35;5.38;;;;;;;-145.69;nan;51678.03;5116276;27;20204;-83
2023/08/26 01:49:07;;;;;;;9.48;4.75;;;;;;;-145.69;nan;51691.91;5113613;28;20211;-83
2023/08/26 01:51:34;;;;;;;10.48;4.82;;;;;;;-145.69;nan;51666.16;5113037;28;20660;-83
2023/08/26 01:54:00;;;;;;;13.30;6.05;;;;;;;-145.69;nan;51697.84;5113635;28;20231;-84
2023/08/26 01:56:27;;;;;;;10.43;5.55;;;;;;;-145.69;nan;51709.72;5113430;28;20202;-85
2023/08/26 01:58:55;;;;;;;8.52;5.35;;;;;;;-145.69;nan;51683.97;5113629;28;20205;-83
2023/08/26 02:01:21;;;;;;;6.22;4.00;;;;;;;-145.69;nan;51683.97;5095347;28;20220;-83
2023/08/26 02:03:48;;;;;;;8.32;4.40;;;;;;;-145.69;nan;51682.00;5113446;28;20561;-83
2023/08/26 02:06:14;;;;;;;6.95;4.70;;;;;;;-145.69;nan;51682.00;5108188;28;20190;-84
2023/08/26 02:08:41;;;;;;;7.32;4.53;;;;;;;-145.69;nan;51703.78;5091924;28;20201;-83
2023/08/26 02:11:09;;;;;;;5.65;3.97;;;;;;;-145.69;nan;51683.97;5074775;28;20199;-83
2023/08/26 02:13:37;;;;;;;8.30;4.05;;;;;;;-145.69;nan;51680.03;5092547;28;20692;-83
2023/08/26 02:16:05;;;;;;;8.13;4.05;;;;;;;-145.69;nan;51699.81;5093102;28;20210;-82
2023/08/26 02:18:31;;;;;;;7.53;3.45;;;;;;;-145.69;nan;51691.91;5092998;28;20556;-83
2023/08/26 02:20:58;;;;;;;7.95;4.22;;;;;;;-145.69;nan;51662.22;5103095;28;20211;-84
2023/08/26 02:23:24;;;;;;;5.68;3.85;;;;;;;-145.69;nan;51668.16;5113146;28;20216;-85
2023/08/26 02:25:51;;;;;;;7.63;4.47;;;;;;;-145.69;nan;51687.94;5113162;28;20201;-84
2023/08/26 02:28:17;;;;;;;7.85;3.78;;;;;;;-145.69;nan;51711.72;5112923;28;20201;-84
2023/08/26 02:30:44;;;;;;;11.25;4.32;;;;;;;-145.69;nan;51691.91;5113219;28;20208;-83
2023/08/26 02:33:12;;;;;;;7.15;3.70;;;;;;;-145.69;nan;51687.94;5113012;28;20193;-84
2023/08/26 02:35:38;;;;;;;7.97;3.78;;;;;;;-145.69;nan;51678.03;5113130;28;20205;-84
2023/08/26 02:38:05;;;;;;;5.30;3.72;;;;;;;-145.69;nan;51691.91;5112910;28;20204;-85
2023/08/26 02:40:31;;;;;;;5.85;3.83;;;;;;;-145.69;nan;51697.84;5112979;28;20221;-84
2023/08/26 02:42:58;;;;;;;6.35;4.07;;;;;;;-145.69;nan;51697.84;5109149;28;20218;-84
2023/08/26 02:45:24;;;;;;;5.72;4.20;;;;;;;-145.69;nan;51680.03;5092743;28;20210;-84
2023/08/26 02:47:51;;;;;;;8.35;4.30;;;;;;;-145.69;nan;51723.59;5092721;28;20729;-85
2023/08/26 02:50:19;;;;;;;5.20;3.45;;;;;;;-145.69;nan;51664.19;5093788;28;20202;-84
2023/08/26 02:52:45;;;;;;;6.40;3.92;;;;;;;-145.69;nan;51680.03;5112865;28;20201;-84
2023/08/26 02:55:12;;;;;;;7.05;3.88;;;;;;;-145.69;nan;51721.59;5113008;28;20197;-84
2023/08/26 02:57:39;;;;;;;5.40;3.25;;;;;;;-145.69;nan;51707.75;5112765;28;20204;-83
2023/08/26 03:00:07;;;;;;;8.32;4.10;;;;;;;-145.69;nan;51695.88;5111203;28;20204;-84
2023/08/26 03:02:34;;;;;;;6.82;3.67;;;;;;;-145.69;nan;51695.88;5103188;28;20225;-84
2023/08/26 03:05:01;;;;;;;4.13;3.22;;;;;;;-145.69;nan;51695.88;5116637;28;20711;-84
2023/08/26 03:07:29;;;;;;;7.88;3.65;;;;;;;-145.69;nan;51719.63;5116511;28;20205;-84
2023/08/26 03:09:55;;;;;;;4.93;3.40;;;;;;;-145.69;nan;51719.63;5116543;28;20204;-84
2023/08/26 03:12:22;;;;;;;8.30;3.38;;;;;;;-145.69;nan;51703.78;5116532;28;20200;-84
2023/08/26 03:14:48;;;;;;;9.10;4.22;;;;;;;-145.69;nan;51711.72;5116059;28;20229;-84
2023/08/26 03:17:15;;;;;;;7.13;3.53;;;;;;;-145.69;nan;51687.94;5116622;28;20205;-84
2023/08/26 03:19:41;;;;;;;5.53;3.70;;;;;;;-145.69;nan;51707.75;5116523;28;20213;-84
2023/08/26 03:22:09;;;;;;;8.55;3.60;;;;;;;-145.69;nan;51719.63;5116193;28;20220;-84
2023/08/26 03:24:37;;;;;;;6.88;4.18;;;;;;;-145.69;nan;51685.97;5116430;28;20291;-84
2023/08/26 03:27:03;;;;;;;6.50;4.10;;;;;;;-145.69;nan;51735.47;5116360;28;20197;-84
2023/08/26 03:29:30;;;;;;;6.32;4.05;;;;;;;-145.69;nan;51733.50;5116205;28;20552;-84
2023/08/26 03:31:56;;;;;;;6.93;4.10;;;;;;;-145.69;nan;51707.75;5115985;28;20197;-84
2023/08/26 03:34:23;;;;;;;10.43;4.50;;;;;;;-145.69;nan;51717.66;5115868;28;20202;-84
2023/08/26 03:36:49;;;;;;;6.93;4.30;;;;;;;-145.69;nan;51719.63;5116227;28;20197;-84
2023/08/26 03:39:16;;;;;;;5.78;3.90;;;;;;;-145.69;nan;51727.53;5115989;28;20201;-83
2023/08/26 03:41:44;;;;;;;7.13;4.05;;;;;;;-145.69;nan;51713.69;5128958;27;20204;-84
2023/08/26 03:44:10;;;;;;;6.82;4.78;;;;;;;-145.69;nan;51717.66;5136191;27;20228;-83
2023/08/26 03:46:37;;;;;;;8.77;3.88;;;;;;;-145.69;nan;51721.59;5136620;27;20212;-83
2023/08/26 03:49:03;;;;;;;10.50;4.43;;;;;;;-145.69;nan;51719.63;5136261;27;20203;-83
2023/08/26 03:51:30;;;;;;;7.38;4.45;;;;;;;-145.69;nan;51705.75;5125250;27;20196;-84
2023/08/26 03:53:56;;;;;;;5.10;4.20;;;;;;;-145.69;nan;51727.53;5115537;28;20197;-83
2023/08/26 03:56:23;;;;;;;7.03;4.22;;;;;;;-145.69;nan;51715.66;5115536;28;20691;-84
2023/08/26 03:58:56;;;;;;;5.40;3.78;;;;;;;-145.69;nan;51703.78;5115517;28;20198;-84
2023/08/26 04:01:23;;;;;;;7.18;3.97;;;;;;;-145.69;nan;51731.50;5115513;28;20247;-84
2023/08/26 04:03:52;;;;;;;4.30;3.33;;;;;;;-145.69;nan;51721.59;5112334;28;20575;-83
2023/08/26 04:06:18;;;;;;;6.97;4.10;;;;;;;-145.69;nan;51719.63;5115262;28;20709;-84
2023/08/26 04:08:46;;;;;;;6.53;3.88;;;;;;;-145.69;nan;51685.97;5115292;28;20205;-84
2023/08/26 04:11:12;;;;;;;8.05;4.80;;;;;;;-145.69;nan;51691.91;5115559;28;20201;-83
2023/08/26 04:13:39;;;;;;;8.63;4.80;;;;;;;-145.69;nan;51822.59;5114149;28;20221;-83
2023/08/26 04:16:07;;;;;;;6.20;4.10;;;;;;;-145.69;nan;51810.72;5115375;28;20652;-84
2023/08/26 04:18:33;;;;;;;6.90;4.43;;;;;;;-145.69;nan;51814.66;5115159;28;20201;-84
2023/08/26 04:21:00;;;;;;;9.60;4.95;;;;;;;-145.69;nan;51838.44;5114777;28;20200;-84
2023/08/26 04:23:27;;;;;;;12.55;5.13;;;;;;;-145.69;nan;51822.59;5114173;28;20228;-83
2023/08/26 04:26:00;;;;;;;13.43;5.30;;;;;;;-145.69;nan;51832.50;5096636;28;20250;-84
2023/08/26 04:28:26;;;;;;;13.73;4.90;;;;;;;-145.69;nan;51842.38;5114833;28;20229;-84
2023/08/26 04:30:53;;;;;;;10.57;4.55;;;;;;;-145.69;nan;51818.63;5096682;28;20560;-84
2023/08/26 04:33:21;;;;;;;6.50;4.05;;;;;;;-145.69;nan;51830.50;5114751;28;20197;-84
2023/08/26 04:35:47;;;;;;;7.85;4.22;;;;;;;-145.69;nan;51838.44;5099844;28;20190;-84
2023/08/26 04:38:14;;;;;;;6.28;4.20;;;;;;;-145.69;nan;51822.59;5094244;28;20204;-84
2023/08/26 04:40:41;;;;;;;7.88;4.43;;;;;;;-145.69;nan;51834.47;5103800;28;20186;-85
2023/08/26 04:43:08;;;;;;;7.30;4.30;;;;;;;-145.69;nan;51842.38;5114588;28;20228;-83
2023/08/26 04:45:35;;;;;;;6.97;4.47;;;;;;;-145.69;nan;51830.50;5114696;28;20208;-84
2023/08/26 04:48:01;;;;;;;6.70;4.00;;;;;;;-145.69;nan;51838.44;5114614;28;20200;-84
2023/08/26 04:50:29;;;;;;;16.67;4.63;;;;;;;-145.69;nan;51802.78;5114292;28;20186;-84
2023/08/26 04:52:56;;;;;;;7.97;4.43;;;;;;;-145.69;nan;51866.16;5114564;28;20229;-82
2023/08/26 04:55:22;;;;;;;5.72;4.07;;;;;;;-145.69;nan;51826.56;5114404;28;20204;-83
2023/08/26 04:57:49;;;;;;;7.15;4.20;;;;;;;-145.69;nan;51818.63;5114477;28;20205;-83
2023/08/26 05:00:17;;;;;;;10.15;4.57;;;;;;;-145.69;nan;51798.81;5114292;28;20197;-83
2023/08/26 05:02:44;;;;;;;12.60;4.85;;;;;;;-145.69;nan;51838.44;5114185;28;20215;-84
2023/08/26 05:05:11;;;;;;;9.40;4.55;;;;;;;-145.69;nan;51830.50;5113384;28;20458;-84
2023/08/26 05:07:38;;;;;;;5.57;4.13;;;;;;;-145.69;nan;51838.44;5114096;28;20197;-83
2023/08/26 05:10:07;;;;;;;9.45;4.28;;;;;;;-145.69;nan;51832.50;5113811;28;20678;-83
2023/08/26 05:12:33;;;;;;;5.38;3.60;;;;;;;-145.69;nan;51826.56;5114211;28;20196;-84
2023/08/26 05:15:00;;;;;;;5.78;3.95;;;;;;;-145.69;nan;51832.50;5113921;28;20232;-83
2023/08/26 05:17:27;;;;;;;7.38;4.32;;;;;;;-145.69;nan;51826.56;5114113;28;20190;-83
2023/08/26 05:19:53;;;;;;;11.27;5.50;;;;;;;-145.69;nan;51808.72;5114231;28;20227;-83
2023/08/26 05:22:21;;;;;;;6.53;4.35;;;;;;;-145.69;nan;51834.47;5113939;28;20205;-83
2023/08/26 05:24:48;;;;;;;8.68;4.20;;;;;;;-145.69;nan;51798.81;5113547;28;20225;-83
2023/08/26 05:27:16;;;;;;;6.78;4.05;;;;;;;-145.69;nan;51866.16;5113937;28;20205;-83
2023/08/26 05:29:42;;;;;;;7.90;4.53;;;;;;;-145.69;nan;51846.34;5113805;28;20205;-83
2023/08/26 05:32:09;;;;;;;7.75;4.03;;;;;;;-145.69;nan;51812.69;5113927;28;20630;-84
2023/08/26 05:34:36;;;;;;;5.57;4.22;;;;;;;-145.69;nan;51810.72;5113768;28;20205;-84
2023/08/26 05:37:02;;;;;;;8.52;4.13;;;;;;;-145.69;nan;51812.69;5113620;28;20209;-84
2023/08/26 05:39:29;;;;;;;7.35;3.70;;;;;;;-145.69;nan;51822.59;5113696;28;20197;-84
2023/08/26 05:41:57;;;;;;;6.00;4.03;;;;;;;-145.69;nan;51790.91;5113416;28;20204;-84
2023/08/26 05:44:24;;;;;;;5.68;3.88;;;;;;;-145.69;nan;51830.50;5113752;28;20229;-84
2023/08/26 05:46:50;;;;;;;8.13;4.55;;;;;;;-145.69;nan;51786.94;5113828;28;20204;-84
2023/08/26 05:49:17;;;;;;;11.63;4.32;;;;;;;-145.69;nan;51826.56;5115273;28;20197;-84
2023/08/26 05:51:43;;;;;;;8.10;4.63;;;;;;;-145.69;nan;51781.00;5113631;28;20529;-84
2023/08/26 05:54:10;;;;;;;9.40;4.07;;;;;;;-145.69;nan;51814.66;5113924;28;20216;-84
2023/08/26 05:56:36;;;;;;;10.10;4.45;;;;;;;-145.69;nan;51810.72;5113510;28;20208;-85
2023/08/26 05:59:04;;;;;;;6.68;3.58;;;;;;;-145.69;nan;51816.66;5113439;28;20201;-84
2023/08/26 06:01:30;;;;;;;9.10;4.00;;;;;;;-145.69;nan;51838.44;5113629;28;20193;-84
2023/08/26 06:03:58;;;;;;;8.38;3.63;;;;;;;-145.69;nan;51822.59;5113226;28;20687;-85
2023/08/26 06:06:25;;;;;;;8.30;4.18;;;;;;;-145.69;nan;51826.56;5113190;28;20280;-84
2023/08/26 06:08:51;;;;;;;11.35;4.18;;;;;;;-145.69;nan;51810.72;5109283;28;20205;-84
2023/08/26 06:11:18;;;;;;;7.65;3.50;;;;;;;-145.69;nan;51798.81;5113530;27;20537;-84
2023/08/26 06:13:44;;;;;;;7.07;3.15;;;;;;;-145.69;nan;51810.72;5113089;28;20703;-84
2023/08/26 06:16:16;;;;;;;8.63;4.05;;;;;;;-145.69;nan;51794.88;5113669;28;20208;-84
2023/08/26 06:18:43;;;;;;;7.53;3.60;;;;;;;-145.69;nan;51810.72;5113371;28;20563;-83
2023/08/26 06:21:09;;;;;;;10.98;3.40;;;;;;;-145.69;nan;51790.91;5095411;28;20197;-83
2023/08/26 06:23:36;;;;;;;4.63;3.22;;;;;;;-145.69;nan;51796.84;5113322;28;20606;-83
2023/08/26 06:26:03;;;;;;;4.75;2.88;;;;;;;-145.69;nan;51779.03;5113111;28;20197;-83
2023/08/26 06:28:30;;;;;;;9.15;3.70;;;;;;;-145.69;nan;51790.91;5113049;28;20201;-84
2023/08/26 06:31:00;;;;;;;13.95;3.80;;;;;;;-145.69;nan;51814.66;5113126;28;20258;-83
2023/08/26 06:33:28;;;;;;;6.50;3.30;;;;;;;-145.69;nan;51781.00;5111686;28;20431;-83
2023/08/26 06:35:55;;;;;;;6.32;3.00;;;;;;;-145.69;nan;51771.09;5112830;28;20202;-84
2023/08/26 06:38:21;;;;;;;7.32;3.58;;;;;;;-145.69;nan;51767.16;5115485;28;20197;-84
2023/08/26 06:40:54;;;;;;;5.32;3.40;;;;;;;-145.69;nan;51757.25;5115510;28;20713;-83
2023/08/26 06:43:20;;;;;;;8.07;3.50;;;;;;;-145.69;nan;51773.09;5117246;28;20201;-83
2023/08/26 06:45:47;;;;;;;7.00;3.35;;;;;;;-145.69;nan;51783.00;5117208;28;20206;-83
2023/08/26 06:48:13;;;;;;;6.05;3.10;;;;;;;-145.69;nan;51777.03;5116934;28;20208;-84
2023/08/26 06:50:41;;;;;;;5.57;3.13;;;;;;;-145.69;nan;51796.84;5116734;28;20660;-83
2023/08/26 06:53:08;;;;;;;6.85;3.30;;;;;;;-145.69;nan;51775.06;5116952;28;20262;-83
2023/08/26 06:55:36;;;;;;;9.15;2.83;;;;;;;-145.69;nan;51765.16;5116706;28;20258;-83
2023/08/26 06:58:02;;;;;;;9.10;2.80;;;;;;;-145.69;nan;51779.03;5116721;28;20227;-84
2023/08/26 07:00:29;;;;;;;6.28;3.33;;;;;;;-145.69;nan;51767.16;5116865;28;20201;-83
2023/08/26 07:02:55;;;;;;;9.52;3.15;;;;;;;-145.69;nan;51775.06;5116431;28;20193;-84
2023/08/26 07:05:22;;;;;;;6.10;2.63;;;;;;;-145.69;nan;51794.88;5116294;28;20225;-84
2023/08/26 07:07:49;;;;;;;7.00;3.10;;;;;;;-145.69;nan;51783.00;5112724;28;20190;-84
2023/08/26 07:10:16;;;;;;;4.88;2.90;;;;;;;-145.69;nan;51765.16;5095940;28;20668;-83
2023/08/26 07:12:43;;;;;;;7.85;2.60;;;;;;;-145.69;nan;51788.94;5096077;28;20197;-83
2023/08/26 07:15:10;;;;;;;8.15;2.53;;;;;;;-145.69;nan;51775.06;5095655;28;20238;-83
2023/08/26 07:17:36;;;;;;;13.45;2.80;;;;;;;-145.69;nan;51792.88;5096090;28;20200;-82
2023/08/26 07:20:04;;;;;;;7.00;3.10;;;;;;;-145.69;nan;51773.09;5095615;28;20202;-82
2023/08/26 07:22:30;;;;;;;4.95;2.42;;;;;;;-145.69;nan;51818.63;5095852;28;20669;-82
2023/08/26 07:24:58;;;;;;;5.15;2.83;;;;;;;-145.69;nan;51812.69;5095520;28;20229;-82
2023/08/26 07:27:25;;;;;;;4.97;2.75;;;;;;;-145.69;nan;51784.97;5101442;28;20198;-83
2023/08/26 07:29:51;;;;;;;7.72;2.50;;;;;;;-145.69;nan;51783.00;5115733;28;20301;-83
2023/08/26 07:32:18;;;;;;;6.75;2.55;;;;;;;-145.69;nan;51763.19;5115839;28;20194;-82
2023/08/26 07:34:44;;;;;;;6.97;2.80;;;;;;;-145.69;nan;51777.03;5115857;28;20275;-82
2023/08/26 07:37:11;;;;;;;5.30;2.72;;;;;;;-145.69;nan;51765.16;5115997;28;20193;-82
2023/08/26 07:39:38;;;;;;;7.47;2.60;;;;;;;-145.69;nan;51761.22;5115767;28;20556;-82
2023/08/26 07:42:06;;;;;;;5.53;2.65;;;;;;;-145.69;nan;51767.16;5117727;27;20212;-83
2023/08/26 07:44:33;;;;;;;5.90;2.63;;;;;;;-145.69;nan;51765.16;5115781;28;20229;-83
2023/08/26 07:46:59;;;;;;;6.75;2.60;;;;;;;-145.69;nan;51731.50;5115994;28;20197;-84
2023/08/26 07:49:26;;;;;;;7.78;2.25;;;;;;;-145.69;nan;51749.31;5116166;28;20205;-83
2023/08/26 07:51:52;;;;;;;6.50;2.58;;;;;;;-145.69;nan;51715.66;5115911;28;20212;-82
2023/08/26 07:54:19;;;;;;;7.45;2.50;;;;;;;-145.69;nan;51761.22;5115564;28;20194;-83
2023/08/26 07:56:45;;;;;;;9.20;2.50;;;;;;;-145.69;nan;51749.31;5115561;28;20304;-82
2023/08/26 07:59:13;;;;;;;4.22;2.15;;;;;;;-145.69;nan;51723.59;5115421;28;20403;-83
2023/08/26 08:01:40;;;;;;;6.05;2.20;;;;;;;-145.69;nan;51719.63;5115648;28;20231;-82
2023/08/26 08:04:07;;;;;;;5.68;2.88;;;;;;;-145.69;nan;51711.72;5113530;28;20263;-83
2023/08/26 08:06:33;;;;;;;6.18;2.50;;;;;;;-145.69;nan;51761.22;5107620;28;20194;-84
2023/08/26 08:09:00;;;;;;;5.80;2.42;;;;;;;-145.69;nan;51735.47;5115285;28;20227;-83
2023/08/26 08:11:26;;;;;;;7.47;2.25;;;;;;;-145.69;nan;51723.59;5114784;28;20194;-84
2023/08/26 08:13:53;;;;;;;6.68;2.67;;;;;;;-145.69;nan;51725.56;5114908;28;20235;-83
2023/08/26 08:16:21;;;;;;;7.63;2.85;;;;;;;-145.69;nan;51727.53;5115408;28;20243;-84
2023/08/26 08:18:48;;;;;;;4.65;2.10;;;;;;;-145.69;nan;51727.53;5115219;28;20197;-83
2023/08/26 08:21:14;;;;;;;6.38;2.30;;;;;;;-145.69;nan;51731.50;5115097;28;20197;-84
2023/08/26 08:23:43;;;;;;;9.23;2.78;;;;;;;-145.69;nan;51737.44;5114904;28;20292;-84
2023/08/26 08:26:11;;;;;;;7.43;2.70;;;;;;;-145.69;nan;51733.50;5115142;28;20193;-84
2023/08/26 08:28:38;;;;;;;5.22;2.25;;;;;;;-145.69;nan;51721.59;5114707;28;20189;-83
2023/08/26 08:31:04;;;;;;;6.18;2.25;;;;;;;-145.69;nan;51731.50;5096671;28;20239;-83
2023/08/26 08:33:33;;;;;;;3.65;2.25;;;;;;;-145.69;nan;51707.75;5114751;28;20564;-83
2023/08/26 08:36:00;;;;;;;7.30;2.30;;;;;;;-145.69;nan;51699.81;5114565;28;20620;-84
2023/08/26 08:38:27;;;;;;;5.60;2.40;;;;;;;-145.69;nan;51693.88;5112798;28;20232;-84
2023/08/26 08:40:53;;;;;;;6.25;2.30;;;;;;;-145.69;nan;51701.81;5114635;28;20197;-83
2023/08/26 08:43:22;;;;;;;5.82;2.60;;;;;;;-145.69;nan;51687.94;5114420;28;20237;-81
2023/08/26 08:45:51;;;;;;;6.07;2.85;;;;;;;-145.69;nan;51699.81;5114417;28;20225;-83
2023/08/26 08:48:18;;;;;;;4.65;2.08;;;;;;;-145.69;nan;51680.03;5114660;28;20303;-83
2023/08/26 08:50:47;;;;;;;5.45;2.35;;;;;;;-145.69;nan;51685.97;5114411;28;20206;-83
2023/08/26 08:53:17;;;;;;;5.25;2.05;;;;;;;-145.69;nan;51660.22;5114398;28;20202;-83
2023/08/26 08:55:45;;;;;;;7.78;2.65;;;;;;;-145.69;nan;51656.25;5114589;28;20261;-83
2023/08/26 08:58:13;;;;;;;4.95;2.35;;;;;;;-145.69;nan;51660.22;5114159;28;20198;-83
2023/08/26 09:00:40;;;;;;;5.05;2.45;;;;;;;-145.69;nan;51683.97;5113366;28;20189;-83
2023/08/26 09:03:09;;;;;;;8.98;2.45;;;;;;;-145.69;nan;51678.03;5114044;28;20197;-83
2023/08/26 09:05:35;;;;;;;9.25;2.67;;;;;;;-145.69;nan;51701.81;5096036;28;20232;-82
2023/08/26 09:08:04;;;;;;;7.05;2.45;;;;;;;-145.69;nan;51676.06;5114016;28;20675;-83
2023/08/26 09:10:32;;;;;;;3.88;2.00;;;;;;;-145.69;nan;51672.09;5114078;28;20213;-82
2023/08/26 09:12:58;;;;;;;7.95;2.80;;;;;;;-145.69;nan;51683.97;5113742;28;20193;-83
2023/08/26 09:15:26;;;;;;;5.47;2.30;;;;;;;-145.69;nan;51676.06;5113432;28;20226;-83
2023/08/26 09:17:57;;;;;;;6.72;2.50;;;;;;;-145.69;nan;51703.78;5114139;28;20595;-83
2023/08/26 09:20:28;;;;;;;6.30;2.33;;;;;;;-145.69;nan;51687.94;5113890;28;20208;-82
2023/08/26 09:23:04;;;;;;;6.22;2.13;;;;;;;-145.69;nan;51664.19;5113854;28;20690;-83
2023/08/26 09:25:35;;;;;;;7.03;2.10;;;;;;;-145.69;nan;51656.25;5113614;28;20229;-83
2023/08/26 09:28:02;;;;;;;6.85;3.80;;;;;;;-145.69;nan;51650.31;5113406;28;20675;-84
2023/08/26 09:30:28;;;;;;;8.45;4.05;;;;;;;-145.69;nan;51685.97;5095137;28;20193;-84
2023/08/26 09:32:55;;;;;;;7.63;3.20;;;;;;;-145.69;nan;51680.03;5113773;28;20209;-84
2023/08/26 09:35:24;;;;;;;4.88;2.45;;;;;;;-145.69;nan;51644.38;5113651;28;20202;-83
2023/08/26 09:38:08;;;;;;;2.95;2.05;;;;;;;-145.69;nan;51656.25;5113110;28;20201;-84
2023/08/26 09:40:35;;;;;;;7.97;2.40;;;;;;;-145.69;nan;51668.16;5113425;28;20216;-84
2023/08/26 09:43:04;;;;;;;6.10;2.33;;;;;;;-145.69;nan;51652.31;5113341;28;20674;-84
2023/08/26 09:45:36;;;;;;;5.95;2.47;;;;;;;-145.69;nan;51634.47;5115713;27;20253;-85
2023/08/26 09:48:03;;;;;;;8.77;2.20;;;;;;;-145.69;nan;51632.50;5134071;27;20203;-83
2023/08/26 09:50:32;;;;;;;6.70;2.20;;;;;;;-145.69;nan;51612.72;5133862;27;20199;-83
2023/08/26 09:52:59;;;;;;;4.85;2.03;;;;;;;-145.69;nan;51634.47;5133207;27;20200;-84
2023/08/26 09:55:38;;;;;;;5.25;2.22;;;;;;;-145.69;nan;51664.19;5133509;27;20200;-83
2023/08/26 09:58:05;;;;;;;9.50;2.75;;;;;;;-145.69;nan;51640.44;5125860;27;20193;-83
2023/08/26 10:00:35;;;;;;;10.05;2.60;;;;;;;-145.69;nan;51646.38;5112883;28;20197;-83
2023/08/26 10:03:06;;;;;;;4.85;2.65;;;;;;;-145.69;nan;51636.47;5113203;28;20279;-84
2023/08/26 10:05:37;;;;;;;5.85;2.60;;;;;;;-145.69;nan;51636.47;5113322;28;20714;-84
2023/08/26 10:08:09;;;;;;;7.13;2.08;;;;;;;-145.69;nan;51626.56;5113301;28;20205;-83
2023/08/26 10:10:47;;;;;;;6.65;2.80;;;;;;;-145.69;nan;51628.53;5113225;28;20555;-81
2023/08/26 10:13:19;;;;;;;7.70;2.65;;;;;;;-145.69;nan;51683.97;5103091;28;20629;-81
2023/08/26 10:15:52;;;;;;;7.05;2.50;;;;;;;-145.69;nan;51642.41;5097184;28;20247;-83
2023/08/26 10:18:29;;;;;;;4.75;2.35;;;;;;;-145.69;nan;51628.53;5097075;28;20193;-83
2023/08/26 10:20:56;;;;;;;5.78;2.60;;;;;;;-145.69;nan;51636.47;5097198;28;20193;-81
2023/08/26 10:23:25;;;;;;;7.75;2.40;;;;;;;-145.69;nan;51608.75;5097113;28;20201;-84
2023/08/26 10:25:54;;;;;;;5.78;2.47;;;;;;;-145.69;nan;51612.72;5096679;28;20260;-84
2023/08/26 10:28:25;;;;;;;5.55;2.45;;;;;;;-145.69;nan;51612.72;5105445;28;20216;-84
2023/08/26 10:30:54;;;;;;;4.45;2.28;;;;;;;-145.69;nan;51634.47;5117097;28;20208;-85
2023/08/26 10:33:28;;;;;;;6.20;2.78;;;;;;;-145.69;nan;51634.47;5115650;28;20201;-84
2023/08/26 10:35:59;;;;;;;5.97;2.38;;;;;;;-145.69;nan;51648.34;5116987;28;20201;-83
2023/08/26 10:38:26;;;;;;;7.75;2.70;;;;;;;-145.69;nan;51640.44;5116480;28;20201;-83
2023/08/26 10:43:57;;;;;;;6.25;2.72;;;;;;;-145.69;37.31;51672.09;5151941;27;21060;-82
2023/08/26 10:46:38;;;;;;;6.75;2.70;;;;;;;-145.69;37.92;51685.97;5151733;27;20265;-82
2023/08/26 10:49:07;;;;;;;5.70;2.80;;;;;;;-145.69;38.37;51683.97;5152124;27;20208;-82
2023/08/26 10:51:36;;;;;;;10.13;3.03;;;;;;;-145.69;38.36;51689.94;5151592;27;20689;-83
2023/08/26 10:54:04;;;;;;;8.05;3.33;;;;;;;-145.69;38.32;51682.00;5151851;27;20195;-84
2023/08/26 10:56:34;;;;;;;6.35;3.03;;;;;;;-145.69;38.73;51680.03;5151819;27;20568;-83
2023/08/26 10:59:06;;;;;;;5.82;2.80;;;;;;;-145.69;40.40;51719.63;5151968;27;20207;-84
2023/08/26 11:01:35;;;;;;;7.88;3.25;;;;;;;-145.69;40.38;51695.88;5151893;27;20204;-84
2023/08/26 11:04:02;;;;;;;9.07;3.00;;;;;;;-145.69;40.91;51703.78;5151354;27;20196;-85
2023/08/26 11:06:29;;;;;;;6.63;2.88;;;;;;;-145.69;41.54;51699.81;5151463;27;20287;-83
2023/08/26 11:08:58;;;;;;;12.57;3.42;;;;;;;-145.69;41.39;51691.91;5151290;27;20203;-84
2023/08/26 11:11:26;;;;;;;8.35;3.42;;;;;;;-145.69;40.62;51729.53;5151604;27;20200;-84
2023/08/26 11:13:52;;;;;;;9.30;3.08;;;;;;;-145.69;40.89;51727.53;5151283;27;20566;-84
2023/08/26 11:16:23;;;;;;;10.52;2.88;;;;;;;-145.69;40.85;51713.69;5151376;27;20204;-83
2023/08/26 11:18:52;;;;;;;7.55;3.03;;;;;;;-145.69;41.37;51719.63;5151317;27;20203;-84
2023/08/26 11:21:19;;;;;;;7.13;3.40;;;;;;;-145.69;42.81;51733.50;5150083;27;20242;-84
2023/08/26 11:23:48;;;;;;;9.95;3.25;;;;;;;-145.69;43.16;51751.31;5151140;27;20228;-84
2023/08/26 11:26:19;;;;;;;8.55;3.58;;;;;;;-145.69;43.59;51741.41;5130141;27;20197;-84
2023/08/26 11:28:47;;;;;;;8.88;3.30;;;;;;;-145.69;43.95;51735.47;5138070;27;20196;-84
2023/08/26 11:31:21;;;;;;;10.38;3.08;;;;;;;-145.69;43.66;51761.22;5151332;27;20200;-84
2023/08/26 11:33:48;;;;;;;6.72;3.20;;;;;;;-145.69;43.94;51727.53;5150276;27;20218;-84
2023/08/26 11:36:20;;;;;;;8.25;3.20;;;;;;;-145.69;43.96;51749.31;5148716;27;20200;-83